sensor_id;sensor_type;location;lat;lon;timestamp;P1;durP1;ratioP1;P2;durP2;ratioP2
4428;SDS011;2227;47.810;8.810;2024-03-23T03:40:42;789.35;;;662.17;;
4428;SDS011;2227;47.810;8.810;2024-03-23T03:43:08;796.53;;;669.50;;
4428;SDS011;2227;47.810;8.810;2024-03-23T03:45:34;791.07;;;676.17;;
4428;SDS011;2227;47.810;8.810;2024-03-23T03:48:00;799.70;;;671.40;;
4428;SDS011;2227;47.810;8.810;2024-03-23T03:50:26;800.83;;;661.75;;
4428;SDS011;2227;47.810;8.810;2024-03-23T03:52:51;797.40;;;676.37;;
4428;SDS011;2227;47.810;8.810;2024-03-23T03:57:51;781.88;;;670.47;;
4428;SDS011;2227;47.810;8.810;2024-03-23T04:00:17;786.83;;;673.43;;
4428;SDS011;2227;47.810;8.810;2024-03-23T04:02:43;793.05;;;668.03;;
4428;SDS011;2227;47.810;8.810;2024-03-23T04:05:09;788.83;;;669.25;;
4428;SDS011;2227;47.810;8.810;2024-03-23T04:07:35;787.80;;;664.38;;
4428;SDS011;2227;47.810;8.810;2024-03-23T04:10:00;797.20;;;671.30;;
4428;SDS011;2227;47.810;8.810;2024-03-23T04:12:26;789.92;;;661.15;;
4428;SDS011;2227;47.810;8.810;2024-03-23T04:14:52;791.45;;;657.70;;
4428;SDS011;2227;47.810;8.810;2024-03-23T04:17:24;792.25;;;664.42;;
4428;SDS011;2227;47.810;8.810;2024-03-23T04:19:50;789.05;;;657.58;;
4428;SDS011;2227;47.810;8.810;2024-03-23T04:22:17;784.10;;;661.23;;
4428;SDS011;2227;47.810;8.810;2024-03-23T04:24:43;785.50;;;660.67;;
4428;SDS011;2227;47.810;8.810;2024-03-23T04:27:09;787.55;;;656.03;;
4428;SDS011;2227;47.810;8.810;2024-03-23T04:29:35;791.60;;;660.73;;
4428;SDS011;2227;47.810;8.810;2024-03-23T04:32:00;797.75;;;649.35;;
4428;SDS011;2227;47.810;8.810;2024-03-23T04:34:27;787.03;;;655.17;;
4428;SDS011;2227;47.810;8.810;2024-03-23T04:36:53;784.78;;;660.95;;
4428;SDS011;2227;47.810;8.810;2024-03-23T04:39:18;786.67;;;666.95;;
4428;SDS011;2227;47.810;8.810;2024-03-23T04:41:44;785.50;;;683.00;;
4428;SDS011;2227;47.810;8.810;2024-03-23T04:44:10;783.50;;;662.25;;
4428;SDS011;2227;47.810;8.810;2024-03-23T04:46:36;786.83;;;669.42;;
4428;SDS011;2227;47.810;8.810;2024-03-23T04:49:02;780.47;;;662.72;;
4428;SDS011;2227;47.810;8.810;2024-03-23T04:51:34;786.08;;;666.55;;
4428;SDS011;2227;47.810;8.810;2024-03-23T04:54:05;786.63;;;670.53;;
4428;SDS011;2227;47.810;8.810;2024-03-23T04:56:31;789.83;;;673.20;;
4428;SDS011;2227;47.810;8.810;2024-03-23T04:58:57;790.45;;;660.50;;
4428;SDS011;2227;47.810;8.810;2024-03-23T05:01:27;790.75;;;669.63;;
4428;SDS011;2227;47.810;8.810;2024-03-23T05:03:53;793.58;;;659.53;;
4428;SDS011;2227;47.810;8.810;2024-03-23T05:06:19;795.42;;;652.97;;
4428;SDS011;2227;47.810;8.810;2024-03-23T05:08:45;795.38;;;665.53;;
4428;SDS011;2227;47.810;8.810;2024-03-23T05:11:11;792.20;;;668.03;;
4428;SDS011;2227;47.810;8.810;2024-03-23T05:13:37;778.95;;;670.35;;
4428;SDS011;2227;47.810;8.810;2024-03-23T05:16:03;788.78;;;697.53;;
4428;SDS011;2227;47.810;8.810;2024-03-23T05:18:29;799.33;;;699.45;;
4428;SDS011;2227;47.810;8.810;2024-03-23T05:20:55;783.80;;;667.97;;
4428;SDS011;2227;47.810;8.810;2024-03-23T05:23:24;792.13;;;693.75;;
4428;SDS011;2227;47.810;8.810;2024-03-23T05:25:50;793.90;;;677.63;;
4428;SDS011;2227;47.810;8.810;2024-03-23T05:28:17;797.35;;;665.75;;
4428;SDS011;2227;47.810;8.810;2024-03-23T05:30:43;799.38;;;652.15;;
4428;SDS011;2227;47.810;8.810;2024-03-23T05:33:09;801.47;;;647.67;;
4428;SDS011;2227;47.810;8.810;2024-03-23T05:35:35;796.35;;;651.95;;
4428;SDS011;2227;47.810;8.810;2024-03-23T05:38:00;792.00;;;658.90;;
4428;SDS011;2227;47.810;8.810;2024-03-23T05:40:26;801.40;;;650.42;;
4428;SDS011;2227;47.810;8.810;2024-03-23T05:42:52;806.22;;;642.38;;
4428;SDS011;2227;47.810;8.810;2024-03-23T05:45:18;810.15;;;643.33;;
4428;SDS011;2227;47.810;8.810;2024-03-23T05:47:44;792.33;;;653.60;;
4428;SDS011;2227;47.810;8.810;2024-03-23T05:50:10;801.47;;;648.72;;
4428;SDS011;2227;47.810;8.810;2024-03-23T05:52:38;790.20;;;663.47;;
4428;SDS011;2227;47.810;8.810;2024-03-23T05:55:04;794.57;;;657.73;;
4428;SDS011;2227;47.810;8.810;2024-03-23T05:57:31;789.03;;;667.53;;
4428;SDS011;2227;47.810;8.810;2024-03-23T05:59:57;785.13;;;676.77;;
4428;SDS011;2227;47.810;8.810;2024-03-23T06:02:23;796.78;;;666.25;;
4428;SDS011;2227;47.810;8.810;2024-03-23T06:04:49;787.13;;;665.78;;
4428;SDS011;2227;47.810;8.810;2024-03-23T06:07:15;793.72;;;671.67;;
4428;SDS011;2227;47.810;8.810;2024-03-23T06:09:41;794.85;;;675.30;;
4428;SDS011;2227;47.810;8.810;2024-03-23T06:12:07;795.25;;;672.10;;
4428;SDS011;2227;47.810;8.810;2024-03-23T06:14:34;801.03;;;668.35;;
4428;SDS011;2227;47.810;8.810;2024-03-23T06:17:00;803.43;;;659.10;;
4428;SDS011;2227;47.810;8.810;2024-03-23T06:19:26;794.47;;;671.17;;
4428;SDS011;2227;47.810;8.810;2024-03-23T06:21:53;797.83;;;665.45;;
4428;SDS011;2227;47.810;8.810;2024-03-23T06:24:21;794.40;;;671.58;;
4428;SDS011;2227;47.810;8.810;2024-03-23T06:26:47;792.00;;;671.20;;
4428;SDS011;2227;47.810;8.810;2024-03-23T06:29:13;797.22;;;664.95;;
4428;SDS011;2227;47.810;8.810;2024-03-23T06:31:39;793.25;;;676.70;;
4428;SDS011;2227;47.810;8.810;2024-03-23T06:34:04;794.65;;;674.50;;
4428;SDS011;2227;47.810;8.810;2024-03-23T06:36:30;798.80;;;667.73;;
4428;SDS011;2227;47.810;8.810;2024-03-23T06:38:56;808.60;;;656.95;;
4428;SDS011;2227;47.810;8.810;2024-03-23T06:41:22;800.50;;;668.80;;
4428;SDS011;2227;47.810;8.810;2024-03-23T06:43:49;804.50;;;663.75;;
4428;SDS011;2227;47.810;8.810;2024-03-23T06:46:15;809.60;;;660.00;;
4428;SDS011;2227;47.810;8.810;2024-03-23T06:48:40;793.65;;;666.45;;
4428;SDS011;2227;47.810;8.810;2024-03-23T06:51:06;794.25;;;677.70;;
4428;SDS011;2227;47.810;8.810;2024-03-23T06:53:32;806.63;;;659.47;;
4428;SDS011;2227;47.810;8.810;2024-03-23T06:55:58;796.83;;;667.08;;
4428;SDS011;2227;47.810;8.810;2024-03-23T06:58:24;799.63;;;666.60;;
4428;SDS011;2227;47.810;8.810;2024-03-23T07:00:50;802.22;;;659.97;;
4428;SDS011;2227;47.810;8.810;2024-03-23T07:03:16;797.00;;;666.58;;
4428;SDS011;2227;47.810;8.810;2024-03-23T07:05:42;796.20;;;670.67;;
4428;SDS011;2227;47.810;8.810;2024-03-23T07:08:08;784.73;;;677.60;;
4428;SDS011;2227;47.810;8.810;2024-03-23T07:10:34;801.83;;;698.30;;
4428;SDS011;2227;47.810;8.810;2024-03-23T07:13:00;799.33;;;708.38;;
4428;SDS011;2227;47.810;8.810;2024-03-23T07:15:26;814.67;;;694.90;;
4428;SDS011;2227;47.810;8.810;2024-03-23T07:17:52;805.88;;;695.95;;
4428;SDS011;2227;47.810;8.810;2024-03-23T07:20:18;804.30;;;709.38;;
4428;SDS011;2227;47.810;8.810;2024-03-23T07:22:45;796.65;;;701.88;;
4428;SDS011;2227;47.810;8.810;2024-03-23T07:25:12;808.65;;;705.67;;
4428;SDS011;2227;47.810;8.810;2024-03-23T07:27:38;808.03;;;693.23;;
4428;SDS011;2227;47.810;8.810;2024-03-23T07:30:04;811.60;;;678.15;;
4428;SDS011;2227;47.810;8.810;2024-03-23T07:32:30;817.80;;;658.97;;
4428;SDS011;2227;47.810;8.810;2024-03-23T07:34:56;799.35;;;671.00;;
4428;SDS011;2227;47.810;8.810;2024-03-23T07:37:22;802.97;;;696.10;;
4428;SDS011;2227;47.810;8.810;2024-03-23T07:39:48;800.17;;;709.80;;
4428;SDS011;2227;47.810;8.810;2024-03-23T07:42:14;796.42;;;706.55;;
4428;SDS011;2227;47.810;8.810;2024-03-23T07:44:39;806.15;;;700.25;;
4428;SDS011;2227;47.810;8.810;2024-03-23T07:47:05;803.20;;;702.80;;
4428;SDS011;2227;47.810;8.810;2024-03-23T07:49:31;803.73;;;703.53;;
4428;SDS011;2227;47.810;8.810;2024-03-23T07:51:57;810.30;;;701.80;;
4428;SDS011;2227;47.810;8.810;2024-03-23T07:54:22;800.20;;;676.33;;
4428;SDS011;2227;47.810;8.810;2024-03-23T07:56:48;805.33;;;661.22;;
4428;SDS011;2227;47.810;8.810;2024-03-23T07:59:14;808.95;;;651.65;;
4428;SDS011;2227;47.810;8.810;2024-03-23T08:01:40;806.33;;;656.67;;
4428;SDS011;2227;47.810;8.810;2024-03-23T08:04:06;810.17;;;646.53;;
4428;SDS011;2227;47.810;8.810;2024-03-23T08:06:31;799.00;;;643.22;;
4428;SDS011;2227;47.810;8.810;2024-03-23T08:08:57;792.45;;;648.90;;
4428;SDS011;2227;47.810;8.810;2024-03-23T08:11:27;801.75;;;636.50;;
4428;SDS011;2227;47.810;8.810;2024-03-23T08:13:54;812.72;;;641.05;;
4428;SDS011;2227;47.810;8.810;2024-03-23T08:16:20;813.90;;;630.90;;
4428;SDS011;2227;47.810;8.810;2024-03-23T08:18:46;811.53;;;632.40;;
4428;SDS011;2227;47.810;8.810;2024-03-23T08:21:12;804.42;;;626.88;;
4428;SDS011;2227;47.810;8.810;2024-03-23T08:23:38;806.00;;;629.90;;
4428;SDS011;2227;47.810;8.810;2024-03-23T08:28:30;832.42;;;632.15;;
4428;SDS011;2227;47.810;8.810;2024-03-23T08:30:56;820.28;;;630.80;;
4428;SDS011;2227;47.810;8.810;2024-03-23T08:33:22;821.28;;;626.42;;
4428;SDS011;2227;47.810;8.810;2024-03-23T08:35:58;824.35;;;634.30;;
4428;SDS011;2227;47.810;8.810;2024-03-23T08:38:25;813.05;;;631.35;;
4428;SDS011;2227;47.810;8.810;2024-03-23T08:40:58;815.27;;;626.93;;
4428;SDS011;2227;47.810;8.810;2024-03-23T08:43:29;812.50;;;628.72;;
4428;SDS011;2227;47.810;8.810;2024-03-23T08:46:10;813.92;;;633.33;;
4428;SDS011;2227;47.810;8.810;2024-03-23T08:51:13;810.92;;;626.95;;
4428;SDS011;2227;47.810;8.810;2024-03-23T08:53:41;813.33;;;629.70;;
4428;SDS011;2227;47.810;8.810;2024-03-23T08:56:08;819.53;;;637.58;;
4428;SDS011;2227;47.810;8.810;2024-03-23T08:58:35;808.90;;;633.97;;
4428;SDS011;2227;47.810;8.810;2024-03-23T09:01:05;796.08;;;634.42;;
4428;SDS011;2227;47.810;8.810;2024-03-23T09:03:33;796.63;;;632.70;;
4428;SDS011;2227;47.810;8.810;2024-03-23T09:06:00;800.55;;;635.47;;
4428;SDS011;2227;47.810;8.810;2024-03-23T09:08:27;795.28;;;638.85;;
4428;SDS011;2227;47.810;8.810;2024-03-23T09:10:53;796.65;;;642.80;;
4428;SDS011;2227;47.810;8.810;2024-03-23T09:13:19;806.22;;;634.45;;
4428;SDS011;2227;47.810;8.810;2024-03-23T09:15:46;796.37;;;640.60;;
4428;SDS011;2227;47.810;8.810;2024-03-23T09:18:13;808.35;;;637.30;;
4428;SDS011;2227;47.810;8.810;2024-03-23T09:20:39;800.85;;;638.13;;
4428;SDS011;2227;47.810;8.810;2024-03-23T09:23:05;802.70;;;634.85;;
4428;SDS011;2227;47.810;8.810;2024-03-23T09:25:30;800.50;;;637.10;;
4428;SDS011;2227;47.810;8.810;2024-03-23T09:27:57;806.33;;;644.25;;
4428;SDS011;2227;47.810;8.810;2024-03-23T09:30:24;781.83;;;675.85;;
4428;SDS011;2227;47.810;8.810;2024-03-23T09:32:49;816.92;;;730.65;;
4428;SDS011;2227;47.810;8.810;2024-03-23T09:35:15;858.63;;;771.42;;
4428;SDS011;2227;47.810;8.810;2024-03-23T09:37:41;879.35;;;792.45;;
4428;SDS011;2227;47.810;8.810;2024-03-23T09:40:10;911.10;;;822.78;;
4428;SDS011;2227;47.810;8.810;2024-03-23T09:42:36;907.88;;;818.45;;
4428;SDS011;2227;47.810;8.810;2024-03-23T09:45:04;881.60;;;793.08;;
4428;SDS011;2227;47.810;8.810;2024-03-23T09:47:34;880.55;;;791.85;;
4428;SDS011;2227;47.810;8.810;2024-03-23T09:50:00;904.28;;;814.97;;
4428;SDS011;2227;47.810;8.810;2024-03-23T09:52:26;909.38;;;821.65;;
4428;SDS011;2227;47.810;8.810;2024-03-23T09:54:52;924.10;;;835.70;;
4428;SDS011;2227;47.810;8.810;2024-03-23T09:57:17;925.20;;;837.40;;
4428;SDS011;2227;47.810;8.810;2024-03-23T09:59:43;933.53;;;846.15;;
4428;SDS011;2227;47.810;8.810;2024-03-23T10:02:09;937.70;;;850.38;;
4428;SDS011;2227;47.810;8.810;2024-03-23T10:04:37;988.40;;;899.13;;
4428;SDS011;2227;47.810;8.810;2024-03-23T10:07:10;992.33;;;902.15;;
4428;SDS011;2227;47.810;8.810;2024-03-23T10:09:40;988.17;;;899.13;;
4428;SDS011;2227;47.810;8.810;2024-03-23T10:12:10;979.67;;;891.47;;
4428;SDS011;2227;47.810;8.810;2024-03-23T10:14:37;976.42;;;889.03;;
4428;SDS011;2227;47.810;8.810;2024-03-23T10:19:46;995.10;;;905.20;;
4428;SDS011;2227;47.810;8.810;2024-03-23T10:22:21;992.40;;;902.47;;
4428;SDS011;2227;47.810;8.810;2024-03-23T10:24:48;1000.47;;;909.97;;
4428;SDS011;2227;47.810;8.810;2024-03-23T10:27:15;994.65;;;904.85;;
4428;SDS011;2227;47.810;8.810;2024-03-23T10:29:43;996.40;;;906.30;;
4428;SDS011;2227;47.810;8.810;2024-03-23T10:32:13;996.03;;;905.38;;
4428;SDS011;2227;47.810;8.810;2024-03-23T10:34:40;995.03;;;903.50;;
4428;SDS011;2227;47.810;8.810;2024-03-23T10:37:06;991.10;;;901.65;;
4428;SDS011;2227;47.810;8.810;2024-03-23T10:39:34;1008.50;;;915.10;;
4428;SDS011;2227;47.810;8.810;2024-03-23T10:42:10;987.55;;;898.75;;
4428;SDS011;2227;47.810;8.810;2024-03-23T10:44:36;995.33;;;907.13;;
4428;SDS011;2227;47.810;8.810;2024-03-23T10:47:04;1032.97;;;943.20;;
4428;SDS011;2227;47.810;8.810;2024-03-23T10:49:31;1039.50;;;949.63;;
4428;SDS011;2227;47.810;8.810;2024-03-23T10:51:59;1009.92;;;920.95;;
4428;SDS011;2227;47.810;8.810;2024-03-23T10:54:25;993.90;;;906.80;;
4428;SDS011;2227;47.810;8.810;2024-03-23T10:57:34;1002.20;;;915.00;;
4428;SDS011;2227;47.810;8.810;2024-03-23T10:59:42;1004.35;;;916.53;;
4428;SDS011;2227;47.810;8.810;2024-03-23T11:02:20;998.92;;;910.22;;
4428;SDS011;2227;47.810;8.810;2024-03-23T11:04:46;991.72;;;903.70;;
4428;SDS011;2227;47.810;8.810;2024-03-23T11:09:52;995.47;;;903.65;;
4428;SDS011;2227;47.810;8.810;2024-03-23T11:14:57;924.40;;;834.00;;
4428;SDS011;2227;47.810;8.810;2024-03-23T11:17:30;922.08;;;831.20;;
4428;SDS011;2227;47.810;8.810;2024-03-23T11:19:57;913.50;;;824.10;;
4428;SDS011;2227;47.810;8.810;2024-03-23T11:22:39;931.70;;;839.05;;
4428;SDS011;2227;47.810;8.810;2024-03-23T11:27:39;887.92;;;796.88;;
4428;SDS011;2227;47.810;8.810;2024-03-23T11:30:18;859.72;;;768.28;;
4428;SDS011;2227;47.810;8.810;2024-03-23T11:32:45;863.17;;;771.83;;
4428;SDS011;2227;47.810;8.810;2024-03-23T11:35:25;860.25;;;770.17;;
4428;SDS011;2227;47.810;8.810;2024-03-23T11:40:27;857.13;;;768.10;;
4428;SDS011;2227;47.810;8.810;2024-03-23T11:43:01;862.60;;;772.15;;
4428;SDS011;2227;47.810;8.810;2024-03-23T11:45:28;858.30;;;769.38;;
4428;SDS011;2227;47.810;8.810;2024-03-23T11:48:05;867.10;;;776.60;;
4428;SDS011;2227;47.810;8.810;2024-03-23T11:50:33;882.60;;;791.50;;
4428;SDS011;2227;47.810;8.810;2024-03-23T11:55:46;884.13;;;793.00;;
4428;SDS011;2227;47.810;8.810;2024-03-23T11:58:21;883.13;;;793.33;;
4428;SDS011;2227;47.810;8.810;2024-03-23T12:00:58;883.72;;;793.42;;
4428;SDS011;2227;47.810;8.810;2024-03-23T12:03:26;874.63;;;784.28;;
4428;SDS011;2227;47.810;8.810;2024-03-23T12:05:57;869.33;;;778.65;;
4428;SDS011;2227;47.810;8.810;2024-03-23T12:08:25;836.88;;;745.08;;
4428;SDS011;2227;47.810;8.810;2024-03-23T12:13:37;821.42;;;732.60;;
4428;SDS011;2227;47.810;8.810;2024-03-23T12:18:39;815.67;;;726.28;;
4428;SDS011;2227;47.810;8.810;2024-03-23T12:21:06;818.30;;;729.53;;
4428;SDS011;2227;47.810;8.810;2024-03-23T12:23:33;816.15;;;727.17;;
4428;SDS011;2227;47.810;8.810;2024-03-23T12:25:59;812.33;;;723.42;;
4428;SDS011;2227;47.810;8.810;2024-03-23T12:28:25;812.22;;;722.17;;
4428;SDS011;2227;47.810;8.810;2024-03-23T12:30:51;816.05;;;679.85;;
4428;SDS011;2227;47.810;8.810;2024-03-23T12:33:18;809.47;;;670.30;;
4428;SDS011;2227;47.810;8.810;2024-03-23T12:35:44;801.38;;;667.28;;
4428;SDS011;2227;47.810;8.810;2024-03-23T12:38:10;799.07;;;665.87;;
4428;SDS011;2227;47.810;8.810;2024-03-23T12:40:35;794.25;;;665.53;;
4428;SDS011;2227;47.810;8.810;2024-03-23T12:43:01;789.55;;;664.30;;
4428;SDS011;2227;47.810;8.810;2024-03-23T12:45:27;785.87;;;668.40;;
4428;SDS011;2227;47.810;8.810;2024-03-23T12:47:53;786.67;;;661.88;;
4428;SDS011;2227;47.810;8.810;2024-03-23T12:50:19;792.13;;;657.25;;
4428;SDS011;2227;47.810;8.810;2024-03-23T12:52:45;798.90;;;644.50;;
4428;SDS011;2227;47.810;8.810;2024-03-23T12:55:11;803.63;;;630.72;;
4428;SDS011;2227;47.810;8.810;2024-03-23T12:57:38;820.33;;;625.60;;
4428;SDS011;2227;47.810;8.810;2024-03-23T13:00:04;822.15;;;619.92;;
4428;SDS011;2227;47.810;8.810;2024-03-23T13:02:31;808.20;;;624.40;;
4428;SDS011;2227;47.810;8.810;2024-03-23T13:05:00;802.80;;;625.22;;
4428;SDS011;2227;47.810;8.810;2024-03-23T13:07:25;810.23;;;629.73;;
4428;SDS011;2227;47.810;8.810;2024-03-23T13:09:52;811.42;;;636.22;;
4428;SDS011;2227;47.810;8.810;2024-03-23T13:12:21;807.20;;;645.42;;
4428;SDS011;2227;47.810;8.810;2024-03-23T13:14:47;805.50;;;653.60;;
4428;SDS011;2227;47.810;8.810;2024-03-23T13:17:14;796.70;;;672.00;;
4428;SDS011;2227;47.810;8.810;2024-03-23T13:19:40;794.10;;;681.92;;
4428;SDS011;2227;47.810;8.810;2024-03-23T13:22:06;798.38;;;709.80;;
4428;SDS011;2227;47.810;8.810;2024-03-23T13:24:32;807.60;;;718.60;;
4428;SDS011;2227;47.810;8.810;2024-03-23T13:26:58;822.23;;;732.93;;
4428;SDS011;2227;47.810;8.810;2024-03-23T13:29:24;821.40;;;731.50;;
4428;SDS011;2227;47.810;8.810;2024-03-23T13:31:51;817.80;;;728.75;;
4428;SDS011;2227;47.810;8.810;2024-03-23T13:34:17;816.72;;;728.08;;
4428;SDS011;2227;47.810;8.810;2024-03-23T13:36:44;816.65;;;728.70;;
4428;SDS011;2227;47.810;8.810;2024-03-23T13:39:11;818.00;;;729.50;;
4428;SDS011;2227;47.810;8.810;2024-03-23T13:41:38;820.67;;;730.08;;
4428;SDS011;2227;47.810;8.810;2024-03-23T13:44:08;812.60;;;719.63;;
4428;SDS011;2227;47.810;8.810;2024-03-23T13:46:38;804.08;;;694.45;;
4428;SDS011;2227;47.810;8.810;2024-03-23T13:49:05;792.00;;;683.38;;
4428;SDS011;2227;47.810;8.810;2024-03-23T13:51:31;790.03;;;676.57;;
4428;SDS011;2227;47.810;8.810;2024-03-23T13:53:57;810.83;;;667.47;;
4428;SDS011;2227;47.810;8.810;2024-03-23T13:56:27;795.67;;;671.78;;
4428;SDS011;2227;47.810;8.810;2024-03-23T13:58:54;796.22;;;671.28;;
4428;SDS011;2227;47.810;8.810;2024-03-23T14:01:21;791.15;;;671.70;;
4428;SDS011;2227;47.810;8.810;2024-03-23T14:03:47;789.65;;;681.33;;
4428;SDS011;2227;47.810;8.810;2024-03-23T14:06:13;779.03;;;681.08;;
4428;SDS011;2227;47.810;8.810;2024-03-23T14:08:39;796.53;;;708.43;;
4428;SDS011;2227;47.810;8.810;2024-03-23T14:11:08;804.20;;;716.25;;
4428;SDS011;2227;47.810;8.810;2024-03-23T14:13:35;811.95;;;723.50;;
4428;SDS011;2227;47.810;8.810;2024-03-23T14:16:01;815.50;;;727.60;;
4428;SDS011;2227;47.810;8.810;2024-03-23T14:18:27;809.20;;;721.25;;
4428;SDS011;2227;47.810;8.810;2024-03-23T14:21:00;806.13;;;717.78;;
4428;SDS011;2227;47.810;8.810;2024-03-23T14:23:27;811.22;;;723.28;;
4428;SDS011;2227;47.810;8.810;2024-03-23T14:25:58;790.47;;;692.50;;
4428;SDS011;2227;47.810;8.810;2024-03-23T14:28:24;779.50;;;680.17;;
4428;SDS011;2227;47.810;8.810;2024-03-23T14:30:50;790.95;;;681.15;;
4428;SDS011;2227;47.810;8.810;2024-03-23T14:33:17;796.97;;;677.17;;
4428;SDS011;2227;47.810;8.810;2024-03-23T14:35:51;782.35;;;678.83;;
4428;SDS011;2227;47.810;8.810;2024-03-23T14:38:18;774.03;;;672.33;;
4428;SDS011;2227;47.810;8.810;2024-03-23T14:40:45;777.88;;;681.88;;
4428;SDS011;2227;47.810;8.810;2024-03-23T14:43:11;798.50;;;710.60;;
4428;SDS011;2227;47.810;8.810;2024-03-23T14:45:37;801.55;;;714.45;;
4428;SDS011;2227;47.810;8.810;2024-03-23T14:48:14;807.92;;;719.38;;
4428;SDS011;2227;47.810;8.810;2024-03-23T14:50:40;814.67;;;726.10;;
4428;SDS011;2227;47.810;8.810;2024-03-23T14:53:06;811.03;;;723.47;;
4428;SDS011;2227;47.810;8.810;2024-03-23T14:55:34;814.50;;;725.03;;
4428;SDS011;2227;47.810;8.810;2024-03-23T14:58:00;805.70;;;717.20;;
4428;SDS011;2227;47.810;8.810;2024-03-23T15:00:26;811.25;;;722.85;;
4428;SDS011;2227;47.810;8.810;2024-03-23T15:02:52;800.15;;;711.97;;
4428;SDS011;2227;47.810;8.810;2024-03-23T15:05:18;802.85;;;713.95;;
4428;SDS011;2227;47.810;8.810;2024-03-23T15:07:44;802.80;;;712.20;;
4428;SDS011;2227;47.810;8.810;2024-03-23T15:10:09;788.40;;;679.85;;
4428;SDS011;2227;47.810;8.810;2024-03-23T15:12:36;782.97;;;690.58;;
4428;SDS011;2227;47.810;8.810;2024-03-23T15:15:02;775.40;;;681.63;;
4428;SDS011;2227;47.810;8.810;2024-03-23T15:17:28;796.63;;;700.60;;
4428;SDS011;2227;47.810;8.810;2024-03-23T15:19:54;786.58;;;678.03;;
4428;SDS011;2227;47.810;8.810;2024-03-23T15:22:20;787.55;;;688.47;;
4428;SDS011;2227;47.810;8.810;2024-03-23T15:24:47;795.40;;;707.60;;
4428;SDS011;2227;47.810;8.810;2024-03-23T15:27:13;800.15;;;702.42;;
4428;SDS011;2227;47.810;8.810;2024-03-23T15:29:39;781.73;;;681.70;;
4428;SDS011;2227;47.810;8.810;2024-03-23T15:32:05;795.03;;;674.65;;
4428;SDS011;2227;47.810;8.810;2024-03-23T15:34:31;801.83;;;667.90;;
4428;SDS011;2227;47.810;8.810;2024-03-23T15:36:57;797.60;;;667.05;;
4428;SDS011;2227;47.810;8.810;2024-03-23T15:39:23;801.75;;;655.97;;
4428;SDS011;2227;47.810;8.810;2024-03-23T15:41:48;779.63;;;666.47;;
4428;SDS011;2227;47.810;8.810;2024-03-23T15:44:14;786.88;;;662.35;;
4428;SDS011;2227;47.810;8.810;2024-03-23T15:46:40;794.30;;;657.72;;
4428;SDS011;2227;47.810;8.810;2024-03-23T15:49:06;793.90;;;650.23;;
4428;SDS011;2227;47.810;8.810;2024-03-23T15:51:32;795.08;;;650.40;;
4428;SDS011;2227;47.810;8.810;2024-03-23T15:54:00;788.33;;;653.08;;
4428;SDS011;2227;47.810;8.810;2024-03-23T15:56:26;794.53;;;658.38;;
4428;SDS011;2227;47.810;8.810;2024-03-23T15:58:54;795.95;;;646.03;;
4428;SDS011;2227;47.810;8.810;2024-03-23T16:01:20;797.83;;;635.33;;
4428;SDS011;2227;47.810;8.810;2024-03-23T16:03:47;792.72;;;645.38;;
4428;SDS011;2227;47.810;8.810;2024-03-23T16:06:12;802.63;;;633.53;;
4428;SDS011;2227;47.810;8.810;2024-03-23T16:08:38;785.97;;;640.23;;
4428;SDS011;2227;47.810;8.810;2024-03-23T16:11:05;791.17;;;631.70;;
4428;SDS011;2227;47.810;8.810;2024-03-23T16:13:35;789.95;;;638.05;;
4428;SDS011;2227;47.810;8.810;2024-03-23T16:16:01;780.55;;;644.20;;
4428;SDS011;2227;47.810;8.810;2024-03-23T16:18:29;787.07;;;654.67;;
4428;SDS011;2227;47.810;8.810;2024-03-23T16:20:58;774.55;;;659.33;;
4428;SDS011;2227;47.810;8.810;2024-03-23T16:23:25;771.50;;;667.60;;
4428;SDS011;2227;47.810;8.810;2024-03-23T16:25:53;774.95;;;676.13;;
4428;SDS011;2227;47.810;8.810;2024-03-23T16:28:23;781.25;;;670.47;;
4428;SDS011;2227;47.810;8.810;2024-03-23T16:33:23;777.22;;;663.90;;
4428;SDS011;2227;47.810;8.810;2024-03-23T16:38:40;779.20;;;663.87;;
4428;SDS011;2227;47.810;8.810;2024-03-23T16:41:08;779.83;;;652.92;;
4428;SDS011;2227;47.810;8.810;2024-03-23T16:43:35;788.30;;;646.67;;
4428;SDS011;2227;47.810;8.810;2024-03-23T16:46:05;787.88;;;633.83;;
4428;SDS011;2227;47.810;8.810;2024-03-23T16:48:36;785.22;;;634.70;;
4428;SDS011;2227;47.810;8.810;2024-03-23T16:51:04;791.03;;;620.97;;
4428;SDS011;2227;47.810;8.810;2024-03-23T16:53:30;782.38;;;623.75;;
4428;SDS011;2227;47.810;8.810;2024-03-23T16:55:57;776.22;;;633.80;;
4428;SDS011;2227;47.810;8.810;2024-03-23T16:58:24;772.53;;;634.90;;
4428;SDS011;2227;47.810;8.810;2024-03-23T17:01:06;780.03;;;621.20;;
4428;SDS011;2227;47.810;8.810;2024-03-23T17:03:35;778.30;;;621.53;;
4428;SDS011;2227;47.810;8.810;2024-03-23T17:06:05;785.83;;;621.22;;
4428;SDS011;2227;47.810;8.810;2024-03-23T17:08:31;787.80;;;614.25;;
4428;SDS011;2227;47.810;8.810;2024-03-23T17:11:01;795.45;;;608.13;;
4428;SDS011;2227;47.810;8.810;2024-03-23T17:13:33;797.28;;;602.20;;
4428;SDS011;2227;47.810;8.810;2024-03-23T17:15:59;798.30;;;597.00;;
4428;SDS011;2227;47.810;8.810;2024-03-23T17:18:26;801.03;;;586.45;;
4428;SDS011;2227;47.810;8.810;2024-03-23T17:20:52;793.42;;;579.17;;
4428;SDS011;2227;47.810;8.810;2024-03-23T17:23:28;787.85;;;576.63;;
4428;SDS011;2227;47.810;8.810;2024-03-23T17:25:55;786.67;;;577.03;;
4428;SDS011;2227;47.810;8.810;2024-03-23T17:28:21;778.90;;;584.35;;
4428;SDS011;2227;47.810;8.810;2024-03-23T17:30:47;782.78;;;597.53;;
4428;SDS011;2227;47.810;8.810;2024-03-23T17:33:13;778.65;;;600.40;;
4428;SDS011;2227;47.810;8.810;2024-03-23T17:35:40;775.78;;;607.40;;
4428;SDS011;2227;47.810;8.810;2024-03-23T17:38:06;775.90;;;604.90;;
4428;SDS011;2227;47.810;8.810;2024-03-23T17:40:32;773.38;;;588.03;;
4428;SDS011;2227;47.810;8.810;2024-03-23T17:42:58;775.53;;;587.67;;
4428;SDS011;2227;47.810;8.810;2024-03-23T17:45:24;786.33;;;606.97;;
4428;SDS011;2227;47.810;8.810;2024-03-23T17:47:50;783.78;;;605.72;;
4428;SDS011;2227;47.810;8.810;2024-03-23T17:50:20;780.60;;;582.15;;
4428;SDS011;2227;47.810;8.810;2024-03-23T17:52:46;782.40;;;592.50;;
4428;SDS011;2227;47.810;8.810;2024-03-23T17:55:12;779.55;;;578.28;;
4428;SDS011;2227;47.810;8.810;2024-03-23T17:57:37;785.78;;;580.47;;
4428;SDS011;2227;47.810;8.810;2024-03-23T18:00:04;799.30;;;573.67;;
4428;SDS011;2227;47.810;8.810;2024-03-23T18:02:33;818.08;;;573.70;;
4428;SDS011;2227;47.810;8.810;2024-03-23T18:04:59;852.53;;;576.80;;
4428;SDS011;2227;47.810;8.810;2024-03-23T18:07:26;853.35;;;562.65;;
4428;SDS011;2227;47.810;8.810;2024-03-23T18:09:52;849.65;;;543.03;;
4428;SDS011;2227;47.810;8.810;2024-03-23T18:12:18;832.03;;;523.15;;
4428;SDS011;2227;47.810;8.810;2024-03-23T18:14:44;840.08;;;524.92;;
4428;SDS011;2227;47.810;8.810;2024-03-23T18:17:10;829.13;;;509.35;;
4428;SDS011;2227;47.810;8.810;2024-03-23T18:19:36;819.53;;;503.23;;
4428;SDS011;2227;47.810;8.810;2024-03-23T18:22:02;817.08;;;497.08;;
4428;SDS011;2227;47.810;8.810;2024-03-23T18:24:28;819.58;;;498.75;;
4428;SDS011;2227;47.810;8.810;2024-03-23T18:26:54;814.70;;;495.42;;
4428;SDS011;2227;47.810;8.810;2024-03-23T18:29:20;829.40;;;501.67;;
4428;SDS011;2227;47.810;8.810;2024-03-23T18:31:46;826.33;;;497.50;;
4428;SDS011;2227;47.810;8.810;2024-03-23T18:34:12;827.65;;;502.48;;